createdAt,value
2022-09-17T00:01:15.667Z,99059.35
2022-09-17T00:03:42.579Z,99051.08
2022-09-17T00:06:12.423Z,99056.89
2022-09-17T00:08:41.417Z,99055.03
2022-09-17T00:11:15.672Z,99059.00
2022-09-17T00:13:44.111Z,99061.36
2022-09-17T00:16:12.314Z,99056.72
2022-09-17T00:18:41.998Z,99060.38
2022-09-17T00:21:17.502Z,99058.96
2022-09-17T00:23:45.106Z,99056.50
2022-09-17T00:26:12.600Z,99054.41
2022-09-17T00:28:39.377Z,99056.05
2022-09-17T00:31:10.080Z,99054.85
2022-09-17T00:33:37.236Z,99062.77
2022-09-17T00:36:05.804Z,99056.45
2022-09-17T00:38:33.322Z,99060.72
2022-09-17T00:41:01.085Z,99057.76
2022-09-17T00:43:49.137Z,99063.48
2022-09-17T00:46:44.832Z,99063.86
2022-09-17T00:49:19.084Z,99068.64
2022-09-17T00:52:12.551Z,99070.82
2022-09-17T00:54:43.310Z,99071.36
2022-09-17T00:57:11.015Z,99077.44
2022-09-17T00:59:37.809Z,99077.37
2022-09-17T01:02:05.060Z,99084.11
2022-09-17T01:04:31.840Z,99078.16
2022-09-17T01:07:20.417Z,99078.05
2022-09-17T01:10:07.637Z,99073.17
2022-09-17T01:12:56.061Z,99075.35
2022-09-17T01:15:32.757Z,99077.73
2022-09-17T01:18:09.145Z,99078.14
2022-09-17T01:20:57.571Z,99076.23
2022-09-17T01:24:03.215Z,99074.48
2022-09-17T01:27:07.134Z,99071.37
2022-09-17T01:29:49.889Z,99074.02
2022-09-17T01:32:39.094Z,99073.38
2022-09-17T01:35:16.249Z,99068.48
2022-09-17T01:38:02.087Z,99070.26
2022-09-17T01:40:41.223Z,99075.58
2022-09-17T01:43:30.469Z,99078.98
2022-09-17T01:46:13.669Z,99076.91
2022-09-17T01:48:45.376Z,99075.36
2022-09-17T01:51:17.213Z,99081.05
2022-09-17T01:53:53.741Z,99080.24
2022-09-17T01:56:25.315Z,99080.30
2022-09-17T01:59:00.859Z,99080.84
2022-09-17T02:01:32.971Z,99075.67
2022-09-17T02:04:25.813Z,99074.30
2022-09-17T02:07:00.465Z,99073.48
2022-09-17T02:09:37.185Z,99066.96
2022-09-17T02:12:08.359Z,99071.56
2022-09-17T02:14:54.451Z,99066.22
2022-09-17T02:17:34.053Z,99065.16
2022-09-17T02:20:01.719Z,99069.96
2022-09-17T02:22:37.198Z,99068.27
2022-09-17T02:25:10.975Z,99068.73
2022-09-17T02:27:49.699Z,99069.30
2022-09-17T02:30:16.651Z,99067.92
2022-09-17T02:32:43.833Z,99070.02
2022-09-17T02:35:14.005Z,99062.80
2022-09-17T02:37:42.341Z,99065.41
2022-09-17T02:40:14.727Z,99065.09
2022-09-17T02:43:05.041Z,99062.10
2022-09-17T02:45:46.397Z,99065.57
2022-09-17T02:48:36.273Z,99062.91
2022-09-17T02:51:19.750Z,99060.96
2022-09-17T02:54:06.089Z,99061.63
2022-09-17T02:57:03.995Z,99059.29
2022-09-17T02:59:58.451Z,99061.56
2022-09-17T03:02:43.541Z,99059.82
2022-09-17T03:05:11.904Z,99057.60
2022-09-17T03:07:39.240Z,99061.83
2022-09-17T03:10:06.550Z,99064.36
2022-09-17T03:12:33.395Z,99065.67
2022-09-17T03:15:00.245Z,99069.30
2022-09-17T03:17:27.035Z,99063.97
2022-09-17T03:19:53.791Z,99063.44
2022-09-17T03:22:20.529Z,99066.40
2022-09-17T03:24:47.323Z,99060.61
2022-09-17T03:27:14.123Z,99059.65
2022-09-17T03:29:40.965Z,99054.78
2022-09-17T03:32:09.011Z,99059.88
2022-09-17T03:34:35.796Z,99059.48
2022-09-17T03:37:02.611Z,99059.84
2022-09-17T03:39:30.431Z,99055.52
2022-09-17T03:41:57.235Z,99058.20
2022-09-17T03:44:24.042Z,99059.45
2022-09-17T03:46:51.166Z,99057.73
2022-09-17T03:49:18.074Z,99056.95
2022-09-17T03:51:45.701Z,99055.58
2022-09-17T03:54:12.435Z,99055.30
2022-09-17T03:56:39.227Z,99053.91
2022-09-17T03:59:06.339Z,99058.67
2022-09-17T04:01:33.415Z,99054.61
2022-09-17T04:04:00.511Z,99057.65
2022-09-17T04:06:27.429Z,99057.58
2022-09-17T04:08:54.409Z,99048.86
2022-09-17T04:11:21.284Z,99050.46
2022-09-17T04:13:48.046Z,99055.55
2022-09-17T04:16:15.087Z,99051.23
2022-09-17T04:18:41.885Z,99048.23
2022-09-17T04:21:08.783Z,99056.29
2022-09-17T04:23:35.590Z,99054.02
2022-09-17T04:26:02.316Z,99052.32
2022-09-17T04:28:29.056Z,99052.92
2022-09-17T04:30:55.820Z,99056.05
2022-09-17T04:33:22.637Z,99062.59
2022-09-17T04:35:49.759Z,99057.10
2022-09-17T04:38:18.744Z,99066.20
2022-09-17T04:40:46.726Z,99061.41
2022-09-17T04:43:14.325Z,99055.41
2022-09-17T04:45:41.579Z,99060.00
2022-09-17T04:48:08.359Z,99053.48
2022-09-17T04:50:35.120Z,99051.81
2022-09-17T04:53:01.880Z,99054.35
2022-09-17T04:55:28.623Z,99050.30
2022-09-17T04:57:55.525Z,99053.45
2022-09-17T05:00:23.390Z,99056.47
2022-09-17T05:02:53.918Z,99059.16
2022-09-17T05:05:22.027Z,99059.75
2022-09-17T05:07:48.946Z,99060.63
2022-09-17T05:10:17.497Z,99058.67
2022-09-17T05:12:55.751Z,99063.40
2022-09-17T05:15:24.767Z,99058.09
2022-09-17T05:17:51.715Z,99060.86
2022-09-17T05:20:18.471Z,99068.23
2022-09-17T05:22:50.118Z,99072.27
2022-09-17T05:25:18.891Z,99076.11
2022-09-17T05:27:46.151Z,99070.65
2022-09-17T05:30:13.301Z,99081.06
2022-09-17T05:32:40.967Z,99079.63
2022-09-17T05:35:08.586Z,99076.94
2022-09-17T05:37:35.309Z,99071.33
2022-09-17T05:40:05.893Z,99072.52
2022-09-17T05:42:32.805Z,99070.11
2022-09-17T05:44:59.655Z,99067.16
2022-09-17T05:47:26.499Z,99064.94
2022-09-17T05:49:53.278Z,99066.26
2022-09-17T05:52:20.150Z,99060.98
2022-09-17T05:54:47.118Z,99060.55
2022-09-17T05:57:13.825Z,99057.02
2022-09-17T05:59:40.497Z,99057.19
2022-09-17T06:02:07.369Z,99058.99
2022-09-17T06:04:35.011Z,99054.63
2022-09-17T06:07:07.485Z,99047.45
2022-09-17T06:09:38.110Z,99046.42
2022-09-17T06:12:05.762Z,99048.88
2022-09-17T06:14:32.745Z,99033.98
2022-09-17T06:17:00.216Z,99037.66
2022-09-17T06:19:28.048Z,99034.30
2022-09-17T06:21:55.515Z,99035.48
2022-09-17T06:24:22.224Z,99033.98
2022-09-17T06:26:49.073Z,99034.40
2022-09-17T06:29:16.105Z,99036.74
2022-09-17T06:31:45.017Z,99031.84
2022-09-17T06:34:12.501Z,99033.40
2022-09-17T06:36:39.631Z,99030.11
2022-09-17T06:39:07.216Z,99031.09
2022-09-17T06:41:34.389Z,99023.70
2022-09-17T06:44:02.303Z,99020.90
2022-09-17T06:46:29.298Z,99018.39
2022-09-17T06:48:56.125Z,99020.45
2022-09-17T06:51:23.699Z,99021.05
2022-09-17T06:53:50.481Z,99016.15
2022-09-17T06:56:18.154Z,99019.05
2022-09-17T06:58:45.015Z,99020.25
2022-09-17T07:01:12.975Z,99021.35
2022-09-17T07:03:43.522Z,99027.14
2022-09-17T07:06:11.410Z,99030.34
2022-09-17T07:08:39.810Z,99029.98
2022-09-17T07:11:07.054Z,99038.77
2022-09-17T07:13:34.066Z,99038.32
2022-09-17T07:16:03.639Z,99044.73
2022-09-17T07:18:30.661Z,99050.42
2022-09-17T07:21:00.189Z,99050.74
2022-09-17T07:23:32.468Z,99050.63
2022-09-17T07:26:01.512Z,99055.68
2022-09-17T07:28:29.033Z,99053.52
2022-09-17T07:30:56.842Z,99062.52
2022-09-17T07:33:27.030Z,99066.89
2022-09-17T07:35:55.036Z,99066.81
2022-09-17T07:38:22.936Z,99071.78
2022-09-17T07:40:58.302Z,99073.78
2022-09-17T07:43:34.052Z,99075.11
2022-09-17T07:46:03.514Z,99075.20
2022-09-17T07:48:30.823Z,99081.27
2022-09-17T07:50:58.423Z,99080.10
2022-09-17T07:53:25.414Z,99081.33
2022-09-17T07:55:54.111Z,99071.79
2022-09-17T07:58:23.141Z,99078.73
2022-09-17T08:00:50.196Z,99073.98
2022-09-17T08:03:17.032Z,99082.12
2022-09-17T08:05:44.122Z,99086.27
2022-09-17T08:08:10.909Z,99087.02
2022-09-17T08:10:37.616Z,99090.23
2022-09-17T08:13:04.346Z,99091.84
2022-09-17T08:15:31.093Z,99085.40
2022-09-17T08:17:57.852Z,99083.45
2022-09-17T08:20:26.386Z,99083.33
2022-09-17T08:23:00.917Z,99085.27
2022-09-17T08:25:27.947Z,99082.08
2022-09-17T08:27:57.752Z,99085.42
2022-09-17T08:30:24.518Z,99087.15
2022-09-17T08:32:51.284Z,99090.80
2022-09-17T08:35:18.196Z,99101.65
2022-09-17T08:37:45.032Z,99104.03
2022-09-17T08:40:21.430Z,99109.05
2022-09-17T08:43:02.593Z,99114.34
2022-09-17T08:45:30.227Z,99118.55
2022-09-17T08:48:05.269Z,99117.74
2022-09-17T08:50:39.261Z,99120.88
2022-09-17T08:53:24.329Z,99121.86
2022-09-17T08:56:13.114Z,99110.46
2022-09-17T08:59:03.144Z,99108.14
2022-09-17T09:01:49.930Z,99105.38
2022-09-17T09:04:26.227Z,99099.42
2022-09-17T09:07:00.449Z,99105.92
2022-09-17T09:09:34.010Z,99102.65
2022-09-17T09:12:18.850Z,99102.73
2022-09-17T09:14:58.507Z,99101.09
2022-09-17T09:17:32.756Z,99100.94
2022-09-17T09:19:59.468Z,99105.08
2022-09-17T09:22:34.333Z,99107.43
2022-09-17T09:25:23.271Z,99105.52
2022-09-17T09:28:17.640Z,99103.46
2022-09-17T09:30:55.564Z,99110.02
2022-09-17T09:33:33.598Z,99112.94
2022-09-17T09:36:00.437Z,99111.09
2022-09-17T09:38:34.385Z,99112.39
2022-09-17T09:41:03.941Z,99106.42
2022-09-17T09:44:02.678Z,99101.15
2022-09-17T09:46:56.605Z,99096.80
2022-09-17T09:50:01.073Z,99101.52
2022-09-17T09:52:39.741Z,99108.71
2022-09-17T09:55:15.909Z,99107.10
2022-09-17T09:57:52.488Z,99114.58
2022-09-17T10:00:45.650Z,99116.09
2022-09-17T10:03:33.115Z,99112.02
2022-09-17T10:06:10.057Z,99114.30
2022-09-17T10:08:58.606Z,99108.20
2022-09-17T10:11:33.462Z,99110.34
2022-09-17T10:14:26.592Z,99108.47
2022-09-17T10:17:13.150Z,99107.01
2022-09-17T10:19:39.857Z,99109.94
2022-09-17T10:22:38.875Z,99122.13
2022-09-17T10:25:29.742Z,99121.30
2022-09-17T10:27:58.906Z,99121.65
2022-09-17T10:30:26.234Z,99127.45
2022-09-17T10:33:25.914Z,99126.33
2022-09-17T10:36:06.587Z,99126.39
2022-09-17T10:38:37.705Z,99132.12
2022-09-17T10:41:13.620Z,99127.09
2022-09-17T10:43:41.591Z,99117.97
2022-09-17T10:46:11.867Z,99120.21
2022-09-17T10:49:10.468Z,99128.71
2022-09-17T10:51:37.932Z,99136.16
2022-09-17T10:54:41.441Z,99141.23
2022-09-17T10:57:17.561Z,99146.48
2022-09-17T10:59:53.580Z,99151.73
2022-09-17T11:02:29.520Z,99149.06
2022-09-17T11:05:14.759Z,99156.00
2022-09-17T11:08:12.971Z,99158.05
2022-09-17T11:10:53.018Z,99155.14
2022-09-17T11:13:30.346Z,99151.80
2022-09-17T11:16:46.945Z,99151.40
2022-09-17T11:19:13.611Z,99147.23
2022-09-17T11:21:51.045Z,99132.66
2022-09-17T11:24:46.024Z,99131.98
2022-09-17T11:27:52.694Z,99130.48
2022-09-17T11:30:22.091Z,99127.49
2022-09-17T11:33:19.931Z,99114.80
2022-09-17T11:36:00.236Z,99121.99
2022-09-17T11:38:39.872Z,99124.75
2022-09-17T11:41:21.324Z,99120.08
2022-09-17T11:44:17.361Z,99117.24
2022-09-17T11:46:50.552Z,99112.49
2022-09-17T11:49:30.188Z,99109.82
2022-09-17T11:52:03.316Z,99114.29
2022-09-17T11:54:59.359Z,99113.44
2022-09-17T11:57:32.997Z,99102.85
2022-09-17T12:00:07.716Z,99110.21
2022-09-17T12:02:59.217Z,99117.95
2022-09-17T12:05:31.468Z,99116.06
2022-09-17T12:08:22.259Z,99115.25
2022-09-17T12:11:14.919Z,99114.75
2022-09-17T12:14:14.451Z,99121.00
2022-09-17T12:16:45.601Z,99122.15
2022-09-17T12:19:25.680Z,99122.05
2022-09-17T12:22:18.048Z,99113.95
2022-09-17T12:24:45.646Z,99113.98
2022-09-17T12:27:21.473Z,99113.39
2022-09-17T12:30:09.697Z,99118.28
2022-09-17T12:33:15.689Z,99122.25
2022-09-17T12:36:10.592Z,99120.19
2022-09-17T12:39:04.148Z,99126.08
2022-09-17T12:41:44.638Z,99128.20
2022-09-17T12:44:39.544Z,99132.16
2022-09-17T12:47:34.622Z,99137.63
2022-09-17T12:50:40.396Z,99133.61
2022-09-17T12:53:36.530Z,99121.21
2022-09-17T12:56:16.035Z,99113.16
2022-09-17T12:58:42.666Z,99114.44
2022-09-17T13:01:23.193Z,99112.03
2022-09-17T13:03:58.747Z,99108.08
2022-09-17T13:06:46.727Z,99110.07
2022-09-17T13:09:28.763Z,99107.30
2022-09-17T13:11:55.463Z,99107.48
2022-09-17T13:14:51.548Z,99106.60
2022-09-17T13:17:42.544Z,99113.81
2022-09-17T13:20:17.941Z,99119.98
2022-09-17T13:22:54.618Z,99116.31
2022-09-17T13:25:23.401Z,99119.19
2022-09-17T13:27:52.293Z,99117.84
2022-09-17T13:30:21.031Z,99116.63
2022-09-17T13:32:52.634Z,99115.79
2022-09-17T13:35:22.241Z,99117.85
2022-09-17T13:37:49.063Z,99120.13
2022-09-17T13:40:26.622Z,99116.57
2022-09-17T13:42:57.121Z,99114.77
2022-09-17T13:45:25.589Z,99115.02
2022-09-17T13:47:54.906Z,99113.09
2022-09-17T13:50:42.487Z,99117.20
2022-09-17T13:53:15.046Z,99116.81
2022-09-17T13:55:49.494Z,99106.27
2022-09-17T13:58:18.938Z,99114.23
2022-09-17T14:01:01.778Z,99111.61
2022-09-17T14:03:31.604Z,99108.67
2022-09-17T14:06:18.998Z,99110.05
2022-09-17T14:08:45.769Z,99107.19
2022-09-17T14:11:21.604Z,99099.39
2022-09-17T14:13:52.756Z,99094.27
2022-09-17T14:16:29.217Z,99094.11
2022-09-17T14:19:40.119Z,99093.20
2022-09-17T14:22:27.496Z,99091.31
2022-09-17T14:24:54.894Z,99092.36
2022-09-17T14:27:41.581Z,99090.73
2022-09-17T14:30:32.186Z,99094.56
2022-09-17T14:33:01.701Z,99090.02
2022-09-17T14:35:41.900Z,99095.57
2022-09-17T14:38:26.614Z,99096.14
2022-09-17T14:41:04.052Z,99092.92
2022-09-17T14:43:36.429Z,99091.83
2022-09-17T14:46:06.066Z,99097.14
2022-09-17T14:48:37.338Z,99096.14
2022-09-17T14:51:19.328Z,99095.94
2022-09-17T14:53:47.600Z,99093.42
2022-09-17T14:56:19.579Z,99096.27
2022-09-17T14:58:54.665Z,99100.09
2022-09-17T15:01:25.240Z,99104.33
2022-09-17T15:04:20.669Z,99103.17
2022-09-17T15:06:47.491Z,99109.27
2022-09-17T15:09:25.954Z,99108.84
2022-09-17T15:11:59.090Z,99107.42
2022-09-17T15:14:30.149Z,99103.61
2022-09-17T15:17:00.016Z,99095.07
2022-09-17T15:19:42.165Z,99098.27
2022-09-17T15:22:24.573Z,99100.00
2022-09-17T15:24:59.909Z,99100.98
2022-09-17T15:27:37.202Z,99093.41
2022-09-17T15:30:09.884Z,99096.88
2022-09-17T15:32:38.001Z,99100.67
2022-09-17T15:35:13.492Z,99101.02
2022-09-17T15:37:52.155Z,99095.39
2022-09-17T15:40:29.439Z,99090.08
2022-09-17T15:43:27.640Z,99088.81
2022-09-17T15:45:55.489Z,99094.02
2022-09-17T15:48:28.234Z,99097.33
2022-09-17T15:50:56.859Z,99106.70
2022-09-17T15:53:35.105Z,99104.09
2022-09-17T15:56:02.141Z,99096.98
2022-09-17T15:58:34.707Z,99095.20
2022-09-17T16:01:24.212Z,99092.80
2022-09-17T16:04:02.071Z,99102.23
2022-09-17T16:06:28.938Z,99114.02
2022-09-17T16:09:01.131Z,99114.71
2022-09-17T16:11:31.090Z,99120.75
2022-09-17T16:14:00.613Z,99123.31
2022-09-17T16:16:34.274Z,99121.00
2022-09-17T16:19:01.363Z,99124.96
2022-09-17T16:21:29.275Z,99118.90
2022-09-17T16:23:58.325Z,99114.27
2022-09-17T16:26:30.912Z,99112.81
2022-09-17T16:29:21.507Z,99111.75
2022-09-17T16:31:50.911Z,99113.96
2022-09-17T16:34:17.845Z,99115.33
2022-09-17T16:36:44.799Z,99118.02
2022-09-17T16:39:11.711Z,99114.15
2022-09-17T16:41:38.561Z,99106.94
2022-09-17T16:44:05.345Z,99100.05
2022-09-17T16:46:32.171Z,99102.72
2022-09-17T16:49:00.742Z,99105.58
2022-09-17T16:51:27.706Z,99101.92
2022-09-17T16:53:54.565Z,99103.42
2022-09-17T16:56:21.310Z,99106.80
2022-09-17T16:58:48.463Z,99107.15
2022-09-17T17:01:16.684Z,99112.64
2022-09-17T17:03:45.874Z,99118.71
2022-09-17T17:06:16.987Z,99116.04
2022-09-17T17:08:43.720Z,99115.95
2022-09-17T17:11:10.711Z,99113.81
2022-09-17T17:13:37.544Z,99114.09
2022-09-17T17:16:13.074Z,99113.08
2022-09-17T17:18:44.145Z,99117.15
2022-09-17T17:21:13.243Z,99118.61
2022-09-17T17:23:40.252Z,99122.42
2022-09-17T17:26:07.020Z,99125.13
2022-09-17T17:28:36.612Z,99119.12
2022-09-17T17:31:04.792Z,99114.91
2022-09-17T17:33:31.599Z,99111.48
2022-09-17T17:36:07.893Z,99108.20
2022-09-17T17:38:36.104Z,99107.31
2022-09-17T17:41:11.966Z,99111.09
2022-09-17T17:43:39.491Z,99105.91
2022-09-17T17:46:11.407Z,99105.58
2022-09-17T17:48:39.355Z,99103.14
2022-09-17T17:51:08.827Z,99102.07
2022-09-17T17:53:36.886Z,99101.49
2022-09-17T17:56:06.956Z,99102.57
2022-09-17T17:58:34.607Z,99103.58
2022-09-17T18:01:20.701Z,99107.06
2022-09-17T18:03:48.293Z,99109.46
2022-09-17T18:06:15.921Z,99110.63
2022-09-17T18:08:44.493Z,99112.15
2022-09-17T18:11:12.034Z,99110.51
2022-09-17T18:13:40.212Z,99108.41
2022-09-17T18:16:12.059Z,99109.59
2022-09-17T18:18:44.698Z,99107.19
2022-09-17T18:21:23.207Z,99110.96
2022-09-17T18:23:51.062Z,99115.11
2022-09-17T18:26:24.149Z,99120.25
2022-09-17T18:28:52.649Z,99124.19
2022-09-17T18:31:34.172Z,99127.98
2022-09-17T18:34:04.467Z,99128.95
2022-09-17T18:36:33.967Z,99129.63
2022-09-17T18:39:29.980Z,99136.76
2022-09-17T18:41:49.573Z,99139.08
2022-09-17T18:44:18.986Z,99133.87
2022-09-17T18:46:48.162Z,99126.98
2022-09-17T18:49:15.886Z,99123.83
2022-09-17T18:51:42.883Z,99121.40
2022-09-17T18:54:10.996Z,99120.91
2022-09-17T18:56:37.793Z,99120.86
2022-09-17T18:59:08.119Z,99121.65
2022-09-17T19:01:36.048Z,99117.26
2022-09-17T19:04:03.562Z,99115.71
2022-09-17T19:06:32.544Z,99110.90
2022-09-17T19:09:01.441Z,99107.59
2022-09-17T19:11:29.203Z,99109.45
2022-09-17T19:13:56.315Z,99108.93
2022-09-17T19:16:23.538Z,99104.86
2022-09-17T19:18:50.598Z,99097.27
2022-09-17T19:21:20.925Z,99092.89
2022-09-17T19:23:50.265Z,99094.98
2022-09-17T19:26:27.767Z,99092.20
2022-09-17T19:28:58.137Z,99083.60
2022-09-17T19:31:26.164Z,99080.64
2022-09-17T19:33:53.838Z,99081.04
2022-09-17T19:36:21.480Z,99079.07
2022-09-17T19:38:49.177Z,99076.17
2022-09-17T19:41:19.672Z,99081.41
2022-09-17T19:43:47.438Z,99082.14
2022-09-17T19:46:17.195Z,99074.47
2022-09-17T19:48:46.189Z,99072.79
2022-09-17T19:51:13.341Z,99068.45
2022-09-17T19:53:40.945Z,99068.56
2022-09-17T19:56:11.065Z,99072.24
2022-09-17T19:58:38.120Z,99064.49
2022-09-17T20:01:05.110Z,99063.67
2022-09-17T20:03:32.313Z,99062.01
2022-09-17T20:06:10.435Z,99062.89
2022-09-17T20:08:46.648Z,99063.35
2022-09-17T20:11:15.778Z,99072.48
2022-09-17T20:13:43.359Z,99074.95
2022-09-17T20:16:15.175Z,99073.81
2022-09-17T20:18:44.222Z,99070.98
2022-09-17T20:21:12.527Z,99074.85
2022-09-17T20:23:39.713Z,99074.69
2022-09-17T20:26:07.405Z,99077.42
2022-09-17T20:28:34.735Z,99075.20
